createdAt,value
2017-09-11T00:01:12.973Z,69.52
2017-09-11T00:03:39.449Z,69.79
2017-09-11T00:06:05.888Z,69.42
2017-09-11T00:08:32.422Z,69.22
2017-09-11T00:10:59.580Z,69.87
2017-09-11T00:13:26.115Z,70.84
2017-09-11T00:15:52.547Z,71.27
2017-09-11T00:18:18.985Z,71.44
2017-09-11T00:20:45.416Z,70.67
2017-09-11T00:23:11.828Z,70.33
2017-09-11T00:25:38.270Z,70.04
2017-09-11T00:28:05.443Z,70.30
2017-09-11T00:30:31.874Z,70.57
2017-09-11T00:32:58.501Z,70.36
2017-09-11T00:35:24.942Z,70.17
2017-09-11T00:37:51.483Z,70.38
2017-09-11T00:40:17.918Z,70.42
2017-09-11T00:42:44.351Z,70.86
2017-09-11T00:45:11.604Z,71.19
2017-09-11T00:47:38.145Z,71.30
2017-09-11T00:50:04.581Z,71.02
2017-09-11T00:52:30.968Z,70.46
2017-09-11T00:54:57.451Z,70.12
2017-09-11T00:57:23.885Z,70.10
2017-09-11T00:59:50.320Z,70.51
2017-09-11T01:02:17.459Z,70.97
2017-09-11T01:04:44.009Z,71.18
2017-09-11T01:07:10.444Z,71.40
2017-09-11T01:09:36.878Z,71.53
2017-09-11T01:12:03.316Z,71.39
2017-09-11T01:14:29.748Z,71.24
2017-09-11T01:16:56.166Z,71.30
2017-09-11T01:19:23.432Z,71.24
2017-09-11T01:21:49.872Z,70.69
2017-09-11T01:24:16.372Z,70.52
2017-09-11T01:26:42.844Z,70.60
2017-09-11T01:29:09.287Z,70.57
2017-09-11T01:31:35.642Z,70.69
2017-09-11T01:34:02.149Z,71.09
2017-09-11T01:36:29.302Z,70.91
2017-09-11T01:38:55.736Z,70.78
2017-09-11T01:41:22.171Z,70.66
2017-09-11T01:43:48.610Z,70.23
2017-09-11T01:46:15.026Z,70.22
2017-09-11T01:48:41.476Z,70.55
2017-09-11T01:51:07.911Z,70.69
2017-09-11T01:53:35.164Z,70.38
2017-09-11T01:56:01.599Z,70.01
2017-09-11T01:58:28.039Z,69.96
2017-09-11T02:00:54.469Z,70.25
2017-09-11T02:03:20.908Z,70.36
2017-09-11T02:05:47.338Z,70.75
2017-09-11T02:08:13.774Z,71.06
2017-09-11T02:10:40.926Z,71.35
2017-09-11T02:13:07.361Z,71.55
2017-09-11T02:15:33.794Z,71.66
2017-09-11T02:18:00.333Z,70.99
2017-09-11T02:20:26.767Z,70.81
2017-09-11T02:22:53.202Z,71.38
2017-09-11T02:25:19.638Z,71.86
2017-09-11T02:27:46.895Z,72.10
2017-09-11T02:30:13.327Z,71.90
2017-09-11T02:32:39.762Z,71.67
2017-09-11T02:35:06.197Z,71.62
2017-09-11T02:37:32.631Z,71.66
2017-09-11T02:39:59.067Z,71.22
2017-09-11T02:42:25.500Z,71.13
2017-09-11T02:44:52.653Z,71.25
2017-09-11T02:47:19.087Z,71.50
2017-09-11T02:49:45.524Z,71.69
2017-09-11T02:52:11.958Z,71.78
2017-09-11T02:54:38.393Z,71.41
2017-09-11T02:57:04.827Z,71.54
2017-09-11T02:59:31.262Z,71.16
2017-09-11T03:01:58.516Z,71.06
2017-09-11T03:04:24.910Z,70.96
2017-09-11T03:06:51.283Z,70.91
2017-09-11T03:09:17.717Z,70.82
2017-09-11T03:11:44.156Z,71.00
2017-09-11T03:14:10.589Z,71.15
2017-09-11T03:16:37.003Z,71.65
2017-09-11T03:19:04.174Z,72.09
2017-09-11T03:21:30.610Z,72.25
2017-09-11T03:23:57.045Z,72.57
2017-09-11T03:26:23.501Z,72.49
2017-09-11T03:28:50.016Z,72.55
2017-09-11T03:31:16.408Z,72.71
2017-09-11T03:33:42.877Z,72.32
2017-09-11T03:36:10.038Z,71.63
2017-09-11T03:38:36.473Z,71.52
2017-09-11T03:41:02.909Z,71.71
2017-09-11T03:43:29.346Z,71.87
2017-09-11T03:45:55.780Z,71.85
2017-09-11T03:48:22.215Z,71.76
2017-09-11T03:50:48.649Z,71.58
2017-09-11T03:53:15.797Z,71.61
2017-09-11T03:55:42.337Z,71.44
2017-09-11T03:58:08.875Z,71.42
2017-09-11T04:00:35.295Z,71.62
2017-09-11T04:03:01.734Z,71.53
2017-09-11T04:05:28.178Z,71.52
2017-09-11T04:07:54.614Z,71.60
2017-09-11T04:10:21.766Z,71.62
2017-09-11T04:12:48.202Z,71.48
2017-09-11T04:15:14.634Z,71.36
2017-09-11T04:17:41.071Z,71.31
2017-09-11T04:20:07.504Z,71.20
2017-09-11T04:22:33.938Z,70.82
2017-09-11T04:25:00.375Z,70.59
2017-09-11T04:27:27.630Z,70.41
2017-09-11T04:29:54.063Z,70.04
2017-09-11T04:32:20.504Z,69.83
2017-09-11T04:34:46.935Z,69.49
2017-09-11T04:37:13.366Z,69.40
2017-09-11T04:39:39.805Z,69.18
2017-09-11T04:42:06.344Z,68.95
2017-09-11T04:44:33.493Z,68.92
2017-09-11T04:46:59.928Z,68.85
2017-09-11T04:49:26.345Z,68.71
2017-09-11T04:51:52.789Z,68.67
2017-09-11T04:54:19.232Z,68.55
2017-09-11T04:56:45.666Z,68.39
2017-09-11T04:59:12.104Z,68.34
2017-09-11T05:01:39.356Z,68.06
2017-09-11T05:04:05.792Z,67.52
2017-09-11T05:06:32.324Z,67.62
2017-09-11T05:08:58.760Z,67.19
2017-09-11T05:11:25.197Z,66.71
2017-09-11T05:13:51.632Z,67.00
2017-09-11T05:16:18.069Z,66.35
2017-09-11T05:18:45.321Z,65.67
2017-09-11T05:21:11.756Z,65.52
2017-09-11T05:23:38.191Z,65.64
2017-09-11T05:26:04.628Z,65.50
2017-09-11T05:28:31.061Z,64.94
2017-09-11T05:30:57.499Z,65.16
2017-09-11T05:33:23.931Z,64.98
2017-09-11T05:35:51.035Z,64.41
2017-09-11T05:38:17.519Z,64.05
2017-09-11T05:40:44.055Z,63.91
2017-09-11T05:43:10.413Z,63.94
2017-09-11T05:45:36.826Z,63.62
2017-09-11T05:48:03.256Z,63.19
2017-09-11T05:50:29.694Z,63.09
2017-09-11T05:52:56.843Z,63.10
2017-09-11T05:55:23.278Z,62.45
2017-09-11T05:57:49.713Z,62.13
2017-09-11T06:00:16.148Z,61.84
2017-09-11T06:07:29.422Z,61.52
2017-09-11T06:37:41.444Z,57.08
2017-09-11T06:40:07.894Z,56.36
2017-09-11T06:42:34.480Z,56.43
2017-09-11T06:45:01.478Z,56.29
2017-09-11T06:47:28.036Z,55.70
2017-09-11T06:49:54.448Z,55.51
2017-09-11T06:52:20.993Z,54.97
2017-09-11T06:54:47.384Z,54.83
2017-09-11T06:57:13.808Z,54.53
2017-09-11T06:59:40.549Z,54.30
2017-09-11T07:02:06.985Z,54.02
2017-09-11T07:04:33.788Z,53.85
2017-09-11T07:07:00.856Z,53.51
2017-09-11T07:09:27.317Z,53.10
2017-09-11T07:11:53.795Z,53.02
2017-09-11T07:14:20.588Z,52.73
2017-09-11T07:16:47.396Z,52.53
2017-09-11T07:19:13.869Z,52.45
2017-09-11T07:21:40.586Z,52.15
2017-09-11T07:24:07.044Z,51.79
2017-09-11T07:26:33.592Z,51.25
2017-09-11T07:29:00.324Z,51.31
2017-09-11T07:31:26.758Z,51.18
2017-09-11T07:33:53.141Z,50.95
2017-09-11T07:36:19.749Z,50.34
2017-09-11T07:38:46.267Z,49.93
2017-09-11T07:41:12.703Z,49.68
2017-09-11T07:43:39.397Z,49.43
2017-09-11T07:46:05.883Z,49.50
2017-09-11T07:48:32.436Z,49.16
2017-09-11T07:50:59.825Z,48.94
2017-09-11T07:53:26.292Z,48.15
2017-09-11T07:55:52.743Z,47.40
2017-09-11T07:58:20.304Z,47.03
2017-09-11T08:00:46.841Z,47.15
2017-09-11T08:03:13.276Z,45.77
2017-09-11T08:05:39.917Z,46.13
2017-09-11T08:08:06.452Z,46.29
2017-09-11T08:10:32.895Z,45.81
2017-09-11T08:12:59.412Z,45.26
2017-09-11T08:15:26.270Z,44.65
2017-09-11T08:17:52.807Z,45.12
2017-09-11T08:20:19.244Z,44.87
2017-09-11T08:22:45.782Z,43.62
2017-09-11T08:25:12.216Z,43.52
2017-09-11T08:27:38.855Z,43.12
2017-09-11T08:30:05.550Z,43.09
2017-09-11T08:32:32.045Z,43.05
2017-09-11T08:52:38.588Z,37.60
2017-09-11T08:55:06.255Z,38.95
2017-09-11T08:57:33.748Z,39.43
2017-09-11T09:00:00.230Z,36.59
2017-09-11T09:02:26.813Z,37.10
2017-09-11T09:04:53.373Z,35.80
2017-09-11T09:07:19.882Z,35.77
2017-09-11T09:09:46.238Z,32.49
2017-09-11T09:12:12.842Z,33.57
2017-09-11T09:14:39.369Z,33.25
2017-09-11T09:17:05.908Z,33.58
2017-09-11T09:19:32.648Z,33.75
2017-09-11T09:22:00.110Z,33.44
2017-09-11T09:24:26.644Z,33.69
2017-09-11T09:26:53.193Z,33.96
2017-09-11T09:29:19.652Z,34.19
2017-09-11T09:31:46.145Z,34.26
2017-09-11T09:34:12.558Z,34.24
2017-09-11T09:36:39.526Z,33.69
2017-09-11T09:39:05.970Z,33.42
2017-09-11T09:41:32.365Z,33.16
2017-09-11T09:43:58.786Z,33.75
2017-09-11T09:46:25.252Z,33.76
2017-09-11T09:48:51.709Z,34.26
2017-09-11T09:51:18.084Z,33.82
2017-09-11T09:57:11.550Z,34.04
2017-09-11T10:09:43.387Z,33.12
2017-09-11T10:12:10.437Z,32.88
2017-09-11T10:17:08.620Z,32.95
2017-09-11T10:19:35.072Z,32.63
2017-09-11T10:22:01.482Z,32.52
2017-09-11T10:24:27.887Z,30.01
2017-09-11T10:26:55.292Z,30.35
2017-09-11T10:29:21.728Z,30.25
2017-09-11T10:31:48.163Z,29.89
2017-09-11T10:34:14.616Z,29.66
2017-09-11T10:36:41.133Z,29.25
2017-09-11T10:39:07.568Z,29.19
2017-09-11T10:41:34.004Z,29.00
2017-09-11T10:44:00.441Z,28.99
2017-09-11T10:46:26.822Z,28.48
2017-09-11T10:48:53.410Z,28.04
2017-09-11T10:51:19.814Z,28.15
2017-09-11T10:53:46.281Z,27.55
2017-09-11T10:56:12.718Z,26.58
2017-09-11T10:58:39.150Z,26.58
2017-09-11T11:01:05.585Z,26.58
2017-09-11T11:03:32.020Z,26.88
2017-09-11T11:05:58.558Z,26.64
2017-09-11T11:08:24.991Z,26.43
2017-09-11T11:10:51.427Z,26.79
2017-09-11T11:13:17.862Z,26.80
2017-09-11T11:15:44.661Z,27.52
2017-09-11T11:18:11.122Z,26.34
2017-09-11T11:20:37.575Z,25.96
2017-09-11T11:23:04.010Z,26.44
2017-09-11T11:25:30.446Z,25.41
2017-09-11T11:27:56.983Z,24.96
2017-09-11T11:30:23.725Z,25.16
2017-09-11T11:32:50.265Z,25.02
2017-09-11T11:35:16.847Z,24.25
2017-09-11T11:37:43.295Z,25.17
2017-09-11T11:40:09.775Z,25.07
2017-09-11T11:42:36.210Z,25.04
2017-09-11T11:45:02.642Z,24.75
2017-09-11T11:47:29.251Z,24.32
2017-09-11T11:49:56.174Z,24.14
2017-09-11T11:52:22.663Z,24.40
2017-09-11T11:54:49.360Z,23.84
2017-09-11T11:57:16.299Z,23.86
2017-09-11T11:59:42.787Z,23.00
2017-09-11T12:02:09.324Z,23.40
2017-09-11T12:04:36.066Z,23.62
2017-09-11T12:07:02.604Z,23.88
2017-09-11T12:09:29.038Z,22.73
2017-09-11T12:11:55.479Z,22.69
2017-09-11T12:14:22.237Z,22.87
2017-09-11T12:16:48.652Z,22.77
2017-09-11T12:19:15.087Z,22.59
2017-09-11T12:21:41.930Z,22.99
2017-09-11T12:24:08.365Z,21.75
2017-09-11T12:26:34.903Z,21.23
2017-09-11T12:29:01.627Z,20.74
2017-09-11T12:31:27.975Z,20.75
2017-09-11T12:33:54.415Z,20.60
2017-09-11T12:36:20.807Z,20.70
2017-09-11T12:38:47.383Z,20.58
2017-09-11T12:41:13.818Z,20.09
2017-09-11T12:43:40.255Z,19.75
2017-09-11T12:46:06.791Z,19.64
2017-09-11T12:48:33.274Z,19.29
2017-09-11T12:50:59.867Z,19.74
2017-09-11T12:53:26.710Z,19.78
2017-09-11T12:55:53.247Z,19.40
2017-09-11T12:58:19.780Z,19.19
2017-09-11T13:00:46.319Z,19.39
2017-09-11T13:03:12.753Z,18.95
2017-09-11T13:05:39.188Z,18.78
2017-09-11T13:08:05.931Z,18.69
2017-09-11T13:10:32.271Z,18.93
2017-09-11T13:12:59.004Z,18.74
2017-09-11T13:15:25.710Z,18.51
2017-09-11T13:17:52.202Z,18.52
2017-09-11T13:20:18.923Z,18.64
2017-09-11T13:22:45.302Z,18.51
2017-09-11T13:25:12.072Z,18.48
2017-09-11T13:27:38.847Z,18.72
2017-09-11T13:30:05.383Z,18.48
2017-09-11T13:32:32.042Z,18.59
2017-09-11T13:34:58.868Z,18.16
2017-09-11T13:37:25.388Z,18.62
2017-09-11T13:39:51.870Z,18.44
2017-09-11T13:42:18.274Z,18.25
2017-09-11T13:44:44.665Z,18.50
2017-09-11T13:47:11.186Z,18.47
2017-09-11T13:49:37.679Z,18.49
2017-09-11T13:52:04.113Z,18.00
2017-09-11T13:54:30.753Z,18.06
2017-09-11T13:56:57.188Z,17.83
2017-09-11T13:59:23.725Z,17.36
2017-09-11T14:01:50.572Z,16.96
2017-09-11T14:04:17.005Z,17.04
2017-09-11T14:06:43.440Z,16.92
2017-09-11T14:09:10.079Z,17.49
2017-09-11T14:11:36.514Z,17.47
2017-09-11T14:14:02.972Z,17.28
2017-09-11T14:16:29.486Z,17.63
2017-09-11T14:18:56.230Z,18.44
2017-09-11T14:21:24.023Z,19.47
2017-09-11T14:23:51.101Z,20.31
2017-09-11T14:26:18.081Z,21.45
2017-09-11T14:28:44.631Z,22.44
2017-09-11T14:31:11.010Z,23.18
2017-09-11T14:36:13.753Z,24.91
2017-09-11T14:38:42.954Z,25.37
2017-09-11T14:41:12.025Z,26.09
2017-09-11T14:43:38.396Z,26.56
2017-09-11T14:46:06.458Z,27.20
2017-09-11T14:48:33.214Z,27.50
2017-09-11T14:51:00.555Z,27.84
2017-09-11T14:53:26.950Z,28.15
2017-09-11T14:55:53.385Z,27.97
2017-09-11T14:58:19.827Z,27.84
2017-09-11T15:00:46.309Z,28.25
2017-09-11T15:03:12.743Z,28.20
2017-09-11T15:05:39.793Z,28.01
2017-09-11T15:08:06.228Z,28.47
2017-09-11T15:10:32.663Z,28.51
2017-09-11T15:12:59.076Z,28.64
2017-09-11T15:15:25.486Z,28.68
2017-09-11T15:17:51.968Z,28.71
2017-09-11T15:20:18.504Z,29.09
2017-09-11T15:22:44.940Z,29.04
2017-09-11T15:25:11.375Z,29.08
2017-09-11T15:27:37.812Z,29.13
2017-09-11T15:30:04.199Z,29.37
2017-09-11T15:32:30.680Z,29.43
2017-09-11T15:34:57.115Z,29.79
2017-09-11T15:37:23.548Z,29.90
2017-09-11T15:39:49.984Z,30.11
2017-09-11T15:42:16.418Z,30.41
2017-09-11T15:44:42.803Z,30.72
2017-09-11T15:47:09.287Z,30.75
2017-09-11T15:49:35.722Z,30.93
2017-09-11T15:52:02.161Z,30.03
2017-09-11T15:54:28.592Z,30.38
2017-09-11T15:56:55.028Z,30.95
2017-09-11T15:59:21.975Z,31.28
2017-09-11T16:01:48.410Z,30.62
2017-09-11T16:04:14.845Z,30.67
2017-09-11T16:06:41.997Z,30.64
2017-09-11T16:09:08.433Z,30.64
2017-09-11T16:11:34.868Z,30.97
2017-09-11T16:14:01.303Z,31.22
2017-09-11T16:16:27.737Z,31.62
2017-09-11T16:18:54.151Z,32.08
2017-09-11T16:21:21.445Z,31.87
2017-09-11T16:23:47.880Z,32.19
2017-09-11T16:26:14.297Z,32.02
2017-09-11T16:28:40.836Z,32.42
2017-09-11T16:31:07.268Z,32.76
2017-09-11T16:33:33.805Z,32.94
2017-09-11T16:36:00.242Z,33.09
2017-09-11T16:38:26.675Z,32.71
2017-09-11T16:40:53.110Z,32.80
2017-09-11T16:43:19.545Z,32.81
2017-09-11T16:45:45.980Z,32.90
2017-09-11T16:48:12.415Z,33.12
2017-09-11T16:50:38.849Z,33.35
2017-09-11T16:53:05.387Z,33.60
2017-09-11T16:55:31.822Z,33.66
2017-09-11T16:57:58.206Z,33.74
2017-09-11T17:00:24.590Z,33.92
2017-09-11T17:02:51.026Z,33.98
2017-09-11T17:05:17.411Z,34.05
2017-09-11T17:07:43.894Z,34.16
2017-09-11T17:10:10.329Z,34.42
2017-09-11T17:12:36.764Z,34.57
2017-09-11T17:15:03.200Z,34.29
2017-09-11T17:17:29.585Z,34.57
2017-09-11T17:19:56.077Z,35.07
2017-09-11T17:22:23.176Z,35.19
2017-09-11T17:24:49.681Z,35.34
2017-09-11T17:27:16.094Z,35.48
2017-09-11T17:29:42.937Z,35.35
2017-09-11T17:32:09.371Z,35.57
2017-09-11T17:34:35.806Z,35.98
2017-09-11T17:37:02.188Z,35.97
2017-09-11T17:39:28.676Z,36.12
2017-09-11T17:41:55.112Z,35.67
2017-09-11T17:44:21.500Z,35.88
2017-09-11T17:46:47.926Z,36.05
2017-09-11T17:49:14.385Z,36.92
2017-09-11T17:51:40.747Z,36.73
2017-09-11T17:54:07.184Z,37.42
2017-09-11T17:56:33.616Z,37.98
2017-09-11T17:59:00.051Z,38.88
2017-09-11T18:01:26.488Z,39.45
2017-09-11T18:03:52.920Z,39.30
2017-09-11T18:06:19.358Z,39.49
2017-09-11T18:08:45.790Z,39.80
2017-09-11T18:11:12.175Z,40.14
2017-09-11T18:13:38.680Z,40.64
2017-09-11T18:16:05.207Z,41.51
2017-09-11T18:18:31.633Z,41.73
2017-09-11T18:20:58.068Z,42.35
2017-09-11T18:23:24.490Z,42.38
2017-09-11T18:25:50.886Z,42.43
2017-09-11T18:28:17.372Z,42.54
2017-09-11T18:30:43.814Z,42.60
2017-09-11T18:33:10.344Z,42.84
2017-09-11T18:35:36.779Z,42.91
2017-09-11T18:38:03.214Z,43.08
2017-09-11T18:40:29.649Z,43.12
2017-09-11T18:42:56.085Z,43.25
2017-09-11T18:45:23.237Z,43.03
2017-09-11T18:47:49.679Z,42.98
2017-09-11T18:50:16.105Z,42.98
2017-09-11T18:52:42.494Z,43.04
2017-09-11T18:55:08.974Z,42.97
2017-09-11T18:57:35.410Z,43.18
2017-09-11T19:00:01.833Z,43.12
2017-09-11T19:02:28.248Z,43.35
2017-09-11T19:04:54.817Z,43.61
2017-09-11T19:07:21.254Z,43.82
2017-09-11T19:09:47.687Z,43.84
2017-09-11T19:12:14.125Z,43.76
2017-09-11T19:14:40.557Z,43.75
2017-09-11T19:17:06.993Z,43.92
2017-09-11T19:19:33.428Z,43.71
2017-09-11T19:21:59.880Z,43.70
2017-09-11T19:24:26.243Z,43.85
2017-09-11T19:26:52.731Z,44.11
2017-09-11T19:29:19.186Z,44.21
2017-09-11T19:31:45.601Z,44.13
2017-09-11T19:34:12.037Z,44.29
2017-09-11T19:36:38.471Z,44.27
2017-09-11T19:39:04.905Z,43.37
2017-09-11T19:41:31.391Z,43.63
2017-09-11T19:43:57.877Z,42.38
2017-09-11T19:46:24.312Z,41.76
2017-09-11T19:48:50.748Z,41.56
2017-09-11T19:51:17.181Z,41.86
2017-09-11T19:53:43.619Z,41.87
2017-09-11T19:56:10.784Z,41.78
2017-09-11T19:58:37.203Z,41.52
2017-09-11T20:01:03.638Z,41.40
2017-09-11T20:03:30.024Z,41.20
2017-09-11T20:05:56.508Z,41.14
2017-09-11T20:08:22.860Z,40.65
2017-09-11T20:10:49.275Z,40.60
2017-09-11T20:13:15.665Z,40.14
2017-09-11T20:15:42.146Z,39.77
2017-09-11T20:18:08.558Z,39.36
2017-09-11T20:20:34.903Z,38.71
2017-09-11T20:23:01.343Z,38.73
2017-09-11T20:25:27.784Z,38.40
2017-09-11T20:27:54.935Z,38.45
2017-09-11T20:30:21.370Z,38.64
2017-09-11T20:32:47.805Z,38.83
2017-09-11T20:35:14.195Z,39.25
2017-09-11T20:37:40.693Z,39.53
2017-09-11T20:40:07.110Z,39.65
2017-09-11T20:42:34.211Z,39.02
2017-09-11T20:45:00.680Z,39.26
2017-09-11T20:47:27.123Z,39.31
2017-09-11T20:49:53.668Z,39.09
2017-09-11T20:52:20.308Z,39.14
2017-09-11T20:54:46.691Z,39.07
2017-09-11T20:57:13.127Z,39.00
2017-09-11T20:59:39.619Z,39.08
2017-09-11T21:02:05.999Z,38.78
2017-09-11T21:04:32.473Z,38.57
2017-09-11T21:06:58.917Z,38.69
2017-09-11T21:09:25.333Z,38.76
2017-09-11T21:11:51.776Z,38.64
2017-09-11T21:14:18.135Z,38.47
2017-09-11T21:16:44.554Z,38.83
2017-09-11T21:19:10.908Z,38.83
2017-09-11T21:21:37.322Z,38.89
2017-09-11T21:24:03.659Z,38.92
2017-09-11T21:26:30.109Z,38.74
2017-09-11T21:28:56.487Z,38.63
2017-09-11T21:31:22.945Z,38.58
2017-09-11T21:33:49.394Z,38.46
2017-09-11T21:36:15.834Z,38.24
2017-09-11T21:38:42.215Z,38.20
2017-09-11T21:41:08.649Z,38.11
2017-09-11T21:43:35.030Z,37.99
2017-09-11T21:46:01.488Z,38.10
2017-09-11T21:48:27.851Z,38.31
2017-09-11T21:50:54.323Z,38.08
2017-09-11T21:53:20.790Z,38.21
2017-09-11T21:55:47.205Z,38.14
2017-09-11T21:58:14.357Z,38.24
2017-09-11T22:00:40.791Z,38.20
2017-09-11T22:03:07.227Z,38.35
2017-09-11T22:05:33.661Z,38.28
2017-09-11T22:08:00.097Z,38.18
2017-09-11T22:10:26.535Z,38.34
2017-09-11T22:12:52.968Z,38.34
2017-09-11T22:15:19.402Z,38.36
2017-09-11T22:17:45.837Z,38.32
2017-09-11T22:20:12.199Z,38.56
2017-09-11T22:22:38.602Z,37.98
2017-09-11T22:25:05.041Z,38.26
2017-09-11T22:27:31.475Z,38.16
2017-09-11T22:29:57.910Z,37.86
2017-09-11T22:32:24.345Z,38.06
2017-09-11T22:34:50.779Z,38.13
2017-09-11T22:37:17.216Z,37.82
2017-09-11T22:39:43.647Z,38.08
2017-09-11T22:42:10.039Z,38.11
2017-09-11T22:44:36.508Z,38.11
2017-09-11T22:47:02.950Z,38.24
2017-09-11T22:49:29.334Z,38.04
2017-09-11T22:51:55.791Z,38.23
2017-09-11T22:54:22.205Z,38.54
2017-09-11T22:56:48.590Z,38.80
2017-09-11T22:59:15.045Z,38.80
2017-09-11T23:01:41.563Z,38.89
2017-09-11T23:04:08.797Z,39.02
2017-09-11T23:06:35.224Z,38.96
2017-09-11T23:09:01.692Z,38.86
2017-09-11T23:11:28.127Z,39.00
2017-09-11T23:13:54.562Z,39.14
2017-09-11T23:16:20.998Z,39.26
2017-09-11T23:18:47.432Z,39.41
2017-09-11T23:21:13.869Z,39.37
2017-09-11T23:23:40.301Z,39.45
2017-09-11T23:26:06.737Z,39.14
2017-09-11T23:28:33.171Z,39.12
2017-09-11T23:30:59.606Z,39.22
2017-09-11T23:33:26.042Z,39.22
2017-09-11T23:35:52.476Z,39.11
2017-09-11T23:38:18.916Z,39.33
2017-09-11T23:40:45.449Z,39.15
2017-09-11T23:43:11.853Z,39.17
2017-09-11T23:45:38.319Z,39.24
2017-09-11T23:48:04.753Z,39.37
2017-09-11T23:50:31.188Z,39.30
2017-09-11T23:52:58.463Z,39.48
2017-09-11T23:55:24.979Z,39.43
2017-09-11T23:57:51.414Z,39.43
